createdAt,value
2023-02-14T00:03:32.975Z,12.62
2023-02-14T00:08:32.949Z,13.00
2023-02-14T00:13:32.905Z,12.62
2023-02-14T00:18:32.849Z,13.21
2023-02-14T00:23:32.850Z,13.21
2023-02-14T00:28:32.811Z,13.21
2023-02-14T00:33:32.772Z,12.57
2023-02-14T00:38:32.739Z,12.62
2023-02-14T00:43:32.693Z,13.00
2023-02-14T00:48:32.657Z,13.00
2023-02-14T00:53:32.608Z,13.00
2023-02-14T00:58:32.559Z,12.94
2023-02-14T01:03:32.520Z,12.62
2023-02-14T01:08:32.489Z,13.05
2023-02-14T01:13:32.476Z,13.05
2023-02-14T01:18:32.400Z,13.05
2023-02-14T01:23:32.367Z,13.05
2023-02-14T01:28:32.340Z,13.43
2023-02-14T01:33:32.306Z,13.64
2023-02-14T01:38:32.268Z,13.43
2023-02-14T01:43:32.252Z,13.32
2023-02-14T01:48:32.206Z,13.48
2023-02-14T01:53:32.167Z,13.16
2023-02-14T01:58:32.151Z,13.16
2023-02-14T02:03:32.182Z,13.37
2023-02-14T02:08:32.068Z,13.32
2023-02-14T02:13:32.039Z,13.43
2023-02-14T02:18:32.001Z,13.16
2023-02-14T02:23:31.959Z,13.00
2023-02-14T02:28:31.920Z,13.27
2023-02-14T02:33:31.934Z,13.00
2023-02-14T02:38:31.887Z,13.37
2023-02-14T02:43:31.847Z,13.05
2023-02-14T02:48:31.813Z,13.21
2023-02-14T02:53:31.788Z,13.16
2023-02-14T02:58:31.744Z,13.59
2023-02-14T03:03:31.698Z,13.64
2023-02-14T03:08:31.644Z,13.64
2023-02-14T03:13:31.592Z,13.59
2023-02-14T03:18:31.586Z,13.37
2023-02-14T03:23:31.547Z,13.21
2023-02-14T03:28:31.514Z,13.59
2023-02-14T03:33:31.471Z,13.37
2023-02-14T03:38:31.428Z,13.37
2023-02-14T03:43:31.373Z,13.64
2023-02-14T03:48:31.340Z,13.16
2023-02-14T03:53:31.304Z,13.21
2023-02-14T03:58:31.253Z,13.48
2023-02-14T04:03:31.235Z,13.05
2023-02-14T04:08:31.191Z,13.00
2023-02-14T04:13:31.152Z,13.00
2023-02-14T04:18:31.128Z,13.21
2023-02-14T04:23:31.076Z,13.21
2023-02-14T04:28:31.017Z,13.16
2023-02-14T04:33:31.031Z,13.00
2023-02-14T04:38:30.984Z,13.16
2023-02-14T04:43:30.944Z,13.21
2023-02-14T04:48:30.912Z,13.16
2023-02-14T04:53:30.886Z,13.21
2023-02-14T04:58:30.837Z,13.21
2023-02-14T05:03:30.821Z,13.00
2023-02-14T05:08:30.778Z,13.16
2023-02-14T05:13:30.746Z,13.43
2023-02-14T05:18:30.728Z,13.21
2023-02-14T05:23:30.722Z,13.21
2023-02-14T05:28:30.689Z,13.16
2023-02-14T05:33:30.631Z,13.32
2023-02-14T05:38:30.663Z,13.37
2023-02-14T05:43:30.628Z,13.05
2023-02-14T05:48:30.563Z,13.27
2023-02-14T05:53:30.593Z,13.37
2023-02-14T05:58:30.556Z,13.21
2023-02-14T06:03:30.543Z,13.16
2023-02-14T06:08:30.449Z,13.37
2023-02-14T06:13:30.417Z,13.21
2023-02-14T06:18:30.390Z,13.21
2023-02-14T06:23:30.388Z,13.21
2023-02-14T06:28:30.322Z,13.37
2023-02-14T06:33:30.313Z,13.32
2023-02-14T06:38:30.291Z,12.73
2023-02-14T06:43:33.015Z,12.78
2023-02-14T06:48:30.256Z,11.82
2023-02-14T06:53:32.197Z,12.25
2023-02-14T06:58:30.198Z,12.25
2023-02-14T07:03:30.181Z,12.46
2023-02-14T07:08:30.159Z,13.43
2023-02-14T07:13:30.145Z,13.59
2023-02-14T07:18:31.723Z,13.59
2023-02-14T07:23:35.260Z,13.16
2023-02-14T07:28:31.697Z,13.21
2023-02-14T07:33:29.960Z,13.43
2023-02-14T07:38:31.698Z,13.16
2023-02-14T07:43:37.992Z,13.43
2023-02-14T07:48:34.013Z,13.16
2023-02-14T07:53:29.824Z,12.03
2023-02-14T07:58:29.920Z,11.92
2023-02-14T08:03:29.762Z,11.87
2023-02-14T08:08:29.784Z,12.51
2023-02-14T08:13:29.728Z,12.62
2023-02-14T08:18:29.675Z,13.37
2023-02-14T08:23:29.678Z,13.37
2023-02-14T08:28:29.646Z,13.59
2023-02-14T08:33:29.579Z,13.59
2023-02-14T08:38:29.560Z,13.32
2023-02-14T08:43:29.564Z,13.59
2023-02-14T08:48:29.525Z,13.59
2023-02-14T08:53:29.537Z,13.16
2023-02-14T08:58:30.478Z,13.16
2023-02-14T09:03:29.556Z,13.37
2023-02-14T09:08:29.650Z,13.54
2023-02-14T09:13:29.414Z,13.16
2023-02-14T09:18:29.499Z,13.16
2023-02-14T09:23:29.352Z,13.21
2023-02-14T09:28:29.351Z,13.64
2023-02-14T09:33:29.331Z,13.96
2023-02-14T09:38:29.287Z,13.96
2023-02-14T09:43:29.231Z,13.91
2023-02-14T09:48:29.232Z,13.86
2023-02-14T09:53:29.296Z,13.64
2023-02-14T09:58:29.111Z,13.59
2023-02-14T10:03:29.131Z,13.59
2023-02-14T10:08:29.182Z,13.86
2023-02-14T10:13:29.033Z,13.75
2023-02-14T10:18:28.994Z,13.80
2023-02-14T10:23:29.170Z,14.02
2023-02-14T10:28:30.754Z,13.54
2023-02-14T10:33:28.962Z,13.75
2023-02-14T10:38:28.916Z,13.96
2023-02-14T10:43:28.987Z,13.37
2023-02-14T10:48:29.269Z,13.64
2023-02-14T10:53:28.776Z,13.91
2023-02-14T10:58:28.723Z,13.96
2023-02-14T11:03:28.828Z,13.43
2023-02-14T11:08:28.691Z,13.21
2023-02-14T11:13:28.636Z,13.21
2023-02-14T11:18:28.747Z,13.64
2023-02-14T11:23:28.644Z,13.37
2023-02-14T11:28:28.568Z,13.75
2023-02-14T11:33:28.524Z,13.75
2023-02-14T11:38:28.490Z,13.48
2023-02-14T11:43:28.439Z,13.32
2023-02-14T11:48:37.621Z,13.43
2023-02-14T11:53:28.511Z,13.37
2023-02-14T11:58:28.538Z,13.54
2023-02-14T12:03:28.420Z,13.54
2023-02-14T12:08:28.577Z,13.59
2023-02-14T12:13:28.277Z,13.91
2023-02-14T12:18:28.293Z,13.48
2023-02-14T12:23:28.453Z,13.43
2023-02-14T12:28:28.248Z,13.59
2023-02-14T12:33:28.164Z,13.59
2023-02-14T12:38:28.366Z,13.32
2023-02-14T12:43:28.161Z,13.37
2023-02-14T12:48:28.228Z,13.37
2023-02-14T12:53:28.142Z,13.59
2023-02-14T12:58:28.083Z,13.48
2023-02-14T13:03:28.024Z,13.27
2023-02-14T13:08:28.001Z,13.37
2023-02-14T13:13:28.002Z,13.21
2023-02-14T13:18:28.468Z,13.54
2023-02-14T13:23:28.664Z,13.54
2023-02-14T13:28:28.389Z,13.32
2023-02-14T13:33:28.196Z,13.37
2023-02-14T13:38:28.257Z,13.37
2023-02-14T13:43:28.110Z,13.43
2023-02-14T13:48:28.531Z,13.16
2023-02-14T13:53:27.988Z,13.27
2023-02-14T13:58:27.633Z,13.37
2023-02-14T14:03:27.788Z,13.27
2023-02-14T14:08:29.880Z,13.27
2023-02-14T14:13:27.529Z,13.43
2023-02-14T14:18:27.486Z,13.27
2023-02-14T14:23:27.633Z,13.59
2023-02-14T14:28:27.425Z,13.16
2023-02-14T14:33:27.368Z,13.11
2023-02-14T14:38:27.562Z,13.37
2023-02-14T14:43:30.059Z,13.16
2023-02-14T14:48:27.386Z,13.37
2023-02-14T14:53:27.252Z,13.43
2023-02-14T14:58:27.270Z,13.37
2023-02-14T15:03:27.194Z,13.37
2023-02-14T15:08:27.185Z,13.16
2023-02-14T15:13:27.163Z,13.27
2023-02-14T15:18:27.181Z,13.11
2023-02-14T15:23:27.150Z,13.00
2023-02-14T15:28:27.175Z,13.32
2023-02-14T15:33:27.100Z,13.21
2023-02-14T15:38:27.073Z,13.43
2023-02-14T15:43:27.027Z,13.43
2023-02-14T15:48:26.980Z,13.43
2023-02-14T15:53:26.967Z,13.37
2023-02-14T15:58:26.964Z,13.43
2023-02-14T16:03:26.927Z,13.21
2023-02-14T16:08:26.908Z,13.48
2023-02-14T16:13:26.875Z,13.59
2023-02-14T16:18:26.849Z,13.21
2023-02-14T16:23:26.833Z,13.21
2023-02-14T16:28:26.826Z,13.37
2023-02-14T16:33:26.792Z,13.37
2023-02-14T16:38:26.765Z,13.37
2023-02-14T16:43:26.756Z,13.27
2023-02-14T16:48:26.744Z,13.43
2023-02-14T16:53:26.723Z,13.27
2023-02-14T16:58:26.692Z,13.37
2023-02-14T17:03:26.747Z,13.16
2023-02-14T17:08:26.641Z,13.43
2023-02-14T17:13:26.627Z,13.37
2023-02-14T17:18:26.626Z,13.59
2023-02-14T17:23:26.556Z,13.00
2023-02-14T17:28:26.573Z,13.32
2023-02-14T17:33:26.540Z,13.21
2023-02-14T17:38:26.521Z,13.21
2023-02-14T17:43:26.532Z,13.37
2023-02-14T17:48:26.495Z,13.37
2023-02-14T17:53:26.427Z,13.16
2023-02-14T17:58:26.416Z,13.37
2023-02-14T18:03:26.381Z,13.21
2023-02-14T18:08:26.359Z,13.00
2023-02-14T18:13:26.323Z,13.37
2023-02-14T18:18:26.315Z,13.43
2023-02-14T18:23:26.263Z,13.16
2023-02-14T18:28:26.243Z,13.05
2023-02-14T18:33:26.175Z,13.16
2023-02-14T18:38:26.157Z,13.37
2023-02-14T18:43:26.133Z,13.21
2023-02-14T18:48:26.119Z,13.05
2023-02-14T18:53:26.115Z,13.16
2023-02-14T18:58:26.098Z,13.27
2023-02-14T19:03:26.093Z,13.16
2023-02-14T19:08:26.116Z,13.16
2023-02-14T19:13:26.066Z,13.11
2023-02-14T19:18:26.059Z,13.16
2023-02-14T19:23:26.029Z,13.54
2023-02-14T19:28:26.009Z,13.32
2023-02-14T19:33:26.010Z,13.21
2023-02-14T19:38:25.940Z,12.94
2023-02-14T19:43:25.922Z,13.27
2023-02-14T19:48:25.903Z,13.21
2023-02-14T19:53:25.899Z,13.21
2023-02-14T19:58:25.876Z,13.21
2023-02-14T20:03:25.863Z,13.16
2023-02-14T20:08:25.831Z,13.27
2023-02-14T20:13:25.782Z,13.21
2023-02-14T20:18:25.767Z,13.37
2023-02-14T20:23:25.721Z,12.94
2023-02-14T20:28:25.700Z,13.21
2023-02-14T20:33:25.679Z,13.21
2023-02-14T20:38:25.641Z,13.05
2023-02-14T20:43:25.608Z,13.11
2023-02-14T20:48:25.559Z,13.21
2023-02-14T20:53:25.514Z,13.37
2023-02-14T20:58:25.509Z,13.48
2023-02-14T21:03:25.481Z,12.94
2023-02-14T21:08:25.440Z,13.37
2023-02-14T21:13:25.400Z,13.37
2023-02-14T21:18:25.356Z,13.00
2023-02-14T21:23:25.360Z,13.00
2023-02-14T21:28:25.308Z,13.37
2023-02-14T21:33:25.258Z,13.21
2023-02-14T21:38:25.244Z,13.21
2023-02-14T21:43:25.222Z,13.16
2023-02-14T21:48:25.203Z,13.21
2023-02-14T21:53:25.221Z,13.16
2023-02-14T21:58:25.180Z,13.11
2023-02-14T22:03:25.141Z,13.43
2023-02-14T22:08:25.115Z,13.00
2023-02-14T22:13:25.092Z,13.21
2023-02-14T22:18:25.061Z,13.37
2023-02-14T22:23:28.855Z,13.16
2023-02-14T22:28:25.030Z,13.16
2023-02-14T22:33:24.961Z,13.37
2023-02-14T22:38:24.943Z,13.27
2023-02-14T22:43:24.927Z,13.21
2023-02-14T22:48:24.886Z,13.16
2023-02-14T22:53:24.860Z,13.37
2023-02-14T22:58:24.825Z,13.16
2023-02-14T23:03:24.779Z,13.37
2023-02-14T23:08:24.745Z,13.00
2023-02-14T23:13:24.721Z,13.43
2023-02-14T23:18:24.700Z,13.16
2023-02-14T23:23:24.672Z,13.27
2023-02-14T23:28:24.635Z,13.37
2023-02-14T23:33:24.593Z,12.84
2023-02-14T23:38:24.594Z,13.00
2023-02-14T23:43:24.563Z,13.27
2023-02-14T23:48:24.555Z,12.46
2023-02-14T23:53:24.548Z,13.00
2023-02-14T23:58:24.529Z,13.16
